Time;durP1;ratioP1;P1;durP2;ratioP2;P2;SDS_P1;SDS_P2;PMS_P1;PMS_P2;Temp;Humidity;BMP_temperature;BMP_pressure;BME280_temperature;BME280_humidity;BME280_pressure;Samples;Min_cycle;Max_cycle;Signal;HPM_P1;HPM_P2
2022/04/17 00:00:50;;;;;;;2.53;1.93;;;9.30;82.30;;;;;;5067103;28;20671;-39
2022/04/17 00:03:17;;;;;;;1.73;1.63;;;9.30;82.20;;;;;;5062498;28;20207;-43
2022/04/17 00:05:44;;;;;;;1.50;1.40;;;9.30;82.10;;;;;;5065997;28;20202;-42
2022/04/17 00:08:11;;;;;;;1.20;1.20;;;9.40;82.20;;;;;;5063033;28;20231;-39
2022/04/17 00:10:38;;;;;;;2.80;1.60;;;9.40;82.00;;;;;;5065913;28;20208;-40
2022/04/17 00:13:06;;;;;;;1.63;1.47;;;9.40;81.90;;;;;;5059985;28;20210;-42
2022/04/17 00:15:34;;;;;;;1.20;1.10;;;9.40;81.80;;;;;;5064288;28;20207;-39
2022/04/17 00:18:01;;;;;;;1.70;1.40;;;9.40;81.80;;;;;;5059315;28;20255;-40
2022/04/17 00:20:29;;;;;;;2.57;1.40;;;9.30;81.80;;;;;;5062187;28;20204;-42
2022/04/17 00:22:56;;;;;;;1.50;1.20;;;9.30;81.80;;;;;;5058263;28;20202;-41
2022/04/17 00:25:23;;;;;;;0.90;0.90;;;9.30;81.80;;;;;;5067270;28;20208;-40
2022/04/17 00:27:50;;;;;;;1.00;1.00;;;9.30;81.70;;;;;;5057725;28;20262;-40
2022/04/17 00:30:20;;;;;;;1.70;1.20;;;9.30;81.60;;;;;;5061074;28;20198;-40
2022/04/17 00:32:48;;;;;;;1.20;1.10;;;9.30;81.60;;;;;;5056057;28;20197;-41
2022/04/17 00:35:15;;;;;;;1.13;1.00;;;9.30;81.60;;;;;;5058963;28;20191;-43
2022/04/17 00:37:43;;;;;;;1.17;0.83;;;9.30;81.50;;;;;;5057336;28;20208;-40
2022/04/17 00:40:10;;;;;;;1.33;1.17;;;9.30;81.50;;;;;;5057648;28;20208;-42
2022/04/17 00:42:37;;;;;;;1.03;0.93;;;9.20;81.40;;;;;;5053925;28;20197;-42
2022/04/17 00:45:05;;;;;;;0.90;0.90;;;9.20;81.40;;;;;;5066639;28;20205;-43
2022/04/17 00:47:33;;;;;;;1.03;0.80;;;9.30;81.40;;;;;;5069081;28;20223;-39
2022/04/17 00:50:02;;;;;;;1.33;1.00;;;9.20;81.30;;;;;;5067691;28;20208;-39
2022/04/17 00:52:30;;;;;;;4.03;1.00;;;9.20;81.30;;;;;;5070925;28;20202;-40
2022/04/17 00:55:00;;;;;;;1.80;0.93;;;9.10;81.20;;;;;;5070640;28;20268;-43
2022/04/17 00:57:27;;;;;;;0.97;0.90;;;9.10;81.30;;;;;;5073635;28;20203;-41
2022/04/17 00:59:54;;;;;;;1.10;0.80;;;9.10;81.40;;;;;;5070218;28;20206;-39
2022/04/17 01:02:21;;;;;;;0.90;0.90;;;9.20;81.50;;;;;;5071123;28;20194;-43
2022/04/17 01:04:49;;;;;;;1.10;0.90;;;9.20;81.40;;;;;;5066985;28;20687;-39
2022/04/17 01:07:17;;;;;;;2.20;1.10;;;9.20;81.30;;;;;;5070961;28;20208;-40
2022/04/17 01:09:46;;;;;;;1.43;0.90;;;9.20;81.30;;;;;;5067953;28;20642;-41
2022/04/17 01:12:13;;;;;;;0.70;0.70;;;9.20;81.30;;;;;;5069485;28;20228;-40
2022/04/17 01:14:41;;;;;;;0.83;0.80;;;9.20;81.20;;;;;;5066872;28;20200;-40
2022/04/17 01:17:09;;;;;;;0.80;0.80;;;9.20;81.20;;;;;;5071220;28;20233;-40
2022/04/17 01:19:39;;;;;;;1.00;1.00;;;9.10;81.20;;;;;;5064336;28;20214;-39
2022/04/17 01:22:09;;;;;;;1.07;0.90;;;9.10;81.30;;;;;;5068519;28;20185;-40
2022/04/17 01:27:22;;;;;;;0.80;0.80;;;9.10;81.20;;;;;;5068136;28;20279;-40
2022/04/17 01:29:50;;;;;;;1.23;1.00;;;9.10;81.20;;;;;;5067965;28;20569;-45
2022/04/17 01:32:18;;;;;;;1.57;1.03;;;9.20;81.30;;;;;;5062365;28;20324;-41
2022/04/17 01:34:45;;;;;;;1.40;0.90;;;9.20;81.30;;;;;;5066826;28;20364;-39
2022/04/17 01:37:15;;;;;;;1.30;0.90;;;9.20;81.20;;;;;;5071358;28;20208;-40
2022/04/17 01:39:42;;;;;;;1.20;1.00;;;9.20;81.00;;;;;;5066240;28;20687;-42
2022/04/17 01:42:11;;;;;;;1.27;0.90;;;9.20;81.00;;;;;;5059648;28;20198;-39
2022/04/17 01:44:38;;;;;;;1.10;1.00;;;9.20;81.00;;;;;;5071311;28;20323;-39
2022/04/17 01:47:05;;;;;;;1.37;0.80;;;9.10;81.00;;;;;;5071822;28;20282;-40
2022/04/17 01:49:33;;;;;;;0.60;0.60;;;9.10;81.30;;;;;;5069722;28;20274;-40
2022/04/17 01:52:00;;;;;;;0.90;0.80;;;9.00;81.30;;;;;;5071487;28;20209;-40
2022/04/17 01:54:29;;;;;;;0.80;0.80;;;9.00;81.30;;;;;;5070300;28;20197;-40
2022/04/17 01:56:57;;;;;;;1.33;1.13;;;9.00;81.40;;;;;;5070740;28;20195;-39
2022/04/17 01:59:24;;;;;;;0.73;0.73;;;9.00;81.50;;;;;;5069363;28;20664;-39
2022/04/17 02:01:52;;;;;;;0.80;0.80;;;8.90;81.40;;;;;;5069106;28;20207;-39
2022/04/17 02:04:19;;;;;;;0.80;0.80;;;8.90;81.40;;;;;;5067961;28;20289;-40
2022/04/17 02:06:47;;;;;;;0.80;0.80;;;8.90;81.40;;;;;;5069122;28;20199;-40
2022/04/17 02:09:16;;;;;;;0.87;0.83;;;8.80;81.40;;;;;;5070141;28;20216;-39
2022/04/17 02:11:45;;;;;;;0.97;0.87;;;8.80;81.40;;;;;;5085400;28;20213;-39
2022/04/17 02:14:13;;;;;;;0.70;0.70;;;8.80;81.30;;;;;;5061704;28;20207;-46
2022/04/17 02:16:41;;;;;;;0.70;0.70;;;8.80;81.30;;;;;;5069921;28;20695;-41
2022/04/17 02:19:09;;;;;;;0.80;0.80;;;8.80;81.10;;;;;;5062292;28;20205;-43
2022/04/17 02:21:36;;;;;;;1.53;1.20;;;8.80;81.10;;;;;;5065790;28;20238;-44
2022/04/17 02:24:03;;;;;;;1.37;0.93;;;8.80;81.00;;;;;;5062410;28;20278;-41
2022/04/17 02:26:31;;;;;;;1.10;1.00;;;8.80;80.70;;;;;;5095576;28;20203;-43
2022/04/17 02:29:01;;;;;;;0.93;0.93;;;8.80;80.70;;;;;;5060234;28;20216;-43
2022/04/17 02:31:28;;;;;;;1.40;1.00;;;8.80;80.70;;;;;;5069850;28;20289;-45
2022/04/17 02:33:57;;;;;;;0.80;0.80;;;8.80;80.60;;;;;;5059365;28;20207;-44
2022/04/17 02:36:24;;;;;;;1.03;0.93;;;8.80;80.60;;;;;;5064813;28;20201;-41
2022/04/17 02:38:53;;;;;;;1.20;1.10;;;8.80;80.70;;;;;;5058857;28;20197;-40
2022/04/17 02:41:20;;;;;;;0.97;0.80;;;8.80;80.60;;;;;;5061862;28;20210;-43
2022/04/17 02:43:47;;;;;;;0.80;0.80;;;8.80;80.50;;;;;;5058210;28;20203;-43
2022/04/17 02:47:42;;;;;;;0.73;0.73;;;8.80;80.50;;;;;;5070909;28;20634;-40
2022/04/17 02:49:03;;;;;;;0.90;0.90;;;8.70;80.30;;;;;;5082072;28;20227;-42
2022/04/17 02:51:30;;;;;;;0.60;0.60;;;8.70;80.20;;;;;;5065317;28;20192;-42
2022/04/17 02:53:57;;;;;;;2.47;0.80;;;8.70;80.20;;;;;;5070105;28;20561;-45
2022/04/17 02:56:24;;;;;;;2.07;0.80;;;8.70;80.20;;;;;;5069659;28;20711;-40
2022/04/17 02:58:54;;;;;;;0.70;0.70;;;8.80;80.20;;;;;;5069928;28;20683;-44
2022/04/17 03:06:58;;;;;;;0.60;0.60;;;8.90;79.60;;;;;;5005381;28;20205;-49
2022/04/17 03:09:25;;;;;;;2.67;0.80;;;8.80;79.50;;;;;;5063337;28;20249;-47
2022/04/17 03:11:52;;;;;;;0.70;0.70;;;8.80;79.50;;;;;;5067733;28;20203;-43
2022/04/17 03:14:19;;;;;;;0.70;0.70;;;8.80;79.50;;;;;;5069475;28;20375;-43
2022/04/17 03:16:47;;;;;;;0.60;0.60;;;8.80;79.50;;;;;;5070565;28;20274;-41
2022/04/17 03:19:14;;;;;;;1.30;0.80;;;8.70;79.30;;;;;;5062966;28;20191;-48
2022/04/17 03:21:42;;;;;;;0.60;0.60;;;8.70;79.40;;;;;;5067329;28;20218;-47
2022/04/17 03:24:09;;;;;;;0.50;0.50;;;8.70;79.30;;;;;;5061988;28;20210;-40
2022/04/17 03:26:41;;;;;;;0.50;0.50;;;8.70;79.20;;;;;;5057893;28;20187;-39
2022/04/17 03:29:08;;;;;;;0.67;0.67;;;8.70;79.10;;;;;;5060231;28;20675;-40
2022/04/17 03:31:35;;;;;;;0.70;0.70;;;8.80;79.00;;;;;;5065485;28;20199;-39
2022/04/17 03:34:05;;;;;;;0.60;0.60;;;8.70;78.80;;;;;;5059862;28;20553;-40
2022/04/17 03:36:32;;;;;;;0.70;0.70;;;8.70;79.50;;;;;;5063936;28;20203;-41
2022/04/17 03:38:59;;;;;;;0.77;0.77;;;8.80;78.80;;;;;;5065107;28;20194;-40
2022/04/17 03:41:26;;;;;;;0.70;0.70;;;8.70;78.60;;;;;;5064592;28;20195;-40
2022/04/17 03:43:53;;;;;;;1.27;0.50;;;8.70;78.70;;;;;;5056499;28;20571;-41
2022/04/17 03:46:20;;;;;;;0.83;0.80;;;8.60;78.70;;;;;;5069091;28;20205;-39
2022/04/17 03:48:47;;;;;;;0.70;0.70;;;8.60;78.80;;;;;;5056536;28;20222;-41
2022/04/17 03:51:16;;;;;;;1.23;0.80;;;8.60;78.80;;;;;;5068188;28;20207;-42
2022/04/17 03:53:43;;;;;;;0.70;0.70;;;8.60;78.80;;;;;;5057170;28;20204;-39
2022/04/17 03:56:10;;;;;;;0.60;0.60;;;8.60;78.90;;;;;;5066979;28;20278;-39
2022/04/17 03:58:37;;;;;;;0.80;0.60;;;8.60;78.90;;;;;;5067614;28;20259;-40
2022/04/17 04:01:04;;;;;;;0.77;0.77;;;8.60;78.90;;;;;;5065302;28;20237;-39
2022/04/17 04:03:32;;;;;;;0.90;0.80;;;8.70;78.80;;;;;;5065391;28;20192;-39
2022/04/17 04:05:59;;;;;;;0.80;0.80;;;8.70;78.70;;;;;;5064427;28;20286;-39
2022/04/17 04:08:27;;;;;;;0.80;0.80;;;8.80;78.70;;;;;;5065334;28;20304;-38
2022/04/17 04:10:54;;;;;;;1.17;0.80;;;8.80;78.60;;;;;;5066044;28;20244;-38
2022/04/17 04:13:22;;;;;;;1.30;0.90;;;8.90;78.50;;;;;;5064742;28;20682;-39
2022/04/17 04:15:49;;;;;;;1.00;0.90;;;8.90;78.40;;;;;;5064181;28;20294;-42
2022/04/17 04:18:16;;;;;;;0.83;0.83;;;8.80;78.40;;;;;;5063982;28;20297;-47
2022/04/17 04:20:44;;;;;;;0.90;0.90;;;8.80;78.60;;;;;;5061024;28;20284;-39
2022/04/17 04:23:11;;;;;;;1.03;0.80;;;8.80;78.70;;;;;;5066828;28;20200;-41
2022/04/17 04:25:39;;;;;;;2.30;0.70;;;8.80;78.70;;;;;;5063511;28;20199;-40
2022/04/17 04:30:51;;;;;;;0.90;0.90;;;8.90;78.80;;;;;;5060226;28;20698;-41
2022/04/17 04:33:18;;;;;;;0.97;0.80;;;9.00;78.70;;;;;;5066227;28;20207;-40
2022/04/17 04:35:46;;;;;;;0.70;0.70;;;9.00;78.60;;;;;;5060658;28;20195;-40
2022/04/17 04:38:13;;;;;;;2.00;0.70;;;9.00;78.40;;;;;;5060178;28;20184;-39
2022/04/17 04:40:41;;;;;;;1.03;0.90;;;9.00;78.30;;;;;;5060100;28;20668;-40
2022/04/17 04:43:08;;;;;;;0.83;0.83;;;9.00;78.30;;;;;;5073253;28;20195;-45
2022/04/17 04:49:29;;;;;;;0.80;0.80;;;9.00;78.20;;;;;;5069562;28;20241;-40
2022/04/17 04:51:08;;;;;;;1.03;1.00;;;9.00;78.10;;;;;;5056165;28;20288;-42
2022/04/17 04:53:35;;;;;;;2.00;1.00;;;9.00;78.00;;;;;;5070580;28;20761;-40
2022/04/17 04:56:04;;;;;;;1.33;1.20;;;9.00;77.90;;;;;;5069544;28;20223;-43
2022/04/17 04:58:31;;;;;;;1.73;1.00;;;9.00;77.80;;;;;;5069488;28;20188;-40
2022/04/17 05:00:58;;;;;;;1.50;1.23;;;9.10;77.80;;;;;;5068249;28;20607;-44
2022/04/17 05:03:25;;;;;;;1.10;1.10;;;10.60;78.00;;;;;;5064407;28;20598;-43
2022/04/17 05:05:53;;;;;;;1.10;1.10;;;9.20;77.70;;;;;;5067500;28;20737;-43
2022/04/17 05:08:20;;;;;;;2.80;1.20;;;9.20;77.50;;;;;;5065005;28;20220;-44
2022/04/17 05:10:48;;;;;;;1.00;1.00;;;9.20;77.50;;;;;;5066989;28;20230;-43
2022/04/17 05:13:17;;;;;;;1.23;1.13;;;9.20;77.40;;;;;;5064424;28;20855;-42
2022/04/17 05:15:44;;;;;;;1.10;1.00;;;9.20;77.50;;;;;;5066914;28;20186;-40
2022/04/17 05:18:11;;;;;;;1.10;1.00;;;9.20;77.30;;;;;;5066347;28;20243;-43
2022/04/17 05:20:38;;;;;;;2.93;1.20;;;9.20;77.40;;;;;;5064270;28;20200;-40
2022/04/17 05:23:18;;;;;;;1.00;1.00;;;9.30;77.30;;;;;;5062676;28;20925;-42
2022/04/17 05:25:46;;;;;;;0.87;0.80;;;9.30;77.30;;;;;;5061990;28;20204;-39
2022/04/17 05:28:13;;;;;;;1.20;1.10;;;9.40;77.20;;;;;;5069948;28;20544;-39
2022/04/17 05:30:42;;;;;;;1.63;1.20;;;9.40;77.30;;;;;;5059941;28;20204;-44
2022/04/17 05:33:10;;;;;;;0.90;0.90;;;9.40;77.30;;;;;;5059923;28;20192;-40
2022/04/17 05:35:39;;;;;;;1.63;1.30;;;9.40;77.20;;;;;;5058366;28;20211;-41
2022/04/17 05:38:06;;;;;;;0.90;0.90;;;9.40;77.10;;;;;;5063566;28;20204;-39
2022/04/17 05:40:37;;;;;;;0.90;0.90;;;9.50;77.40;;;;;;5058086;28;20674;-38
2022/04/17 05:43:05;;;;;;;1.23;1.13;;;9.50;77.40;;;;;;5056323;28;20209;-39
2022/04/17 05:45:33;;;;;;;0.80;0.80;;;9.50;77.50;;;;;;5060400;28;20191;-43
2022/04/17 05:48:02;;;;;;;0.80;0.80;;;9.50;77.60;;;;;;5070888;28;20212;-43
2022/04/17 05:50:29;;;;;;;1.17;1.07;;;9.50;77.70;;;;;;5071758;28;20227;-40
2022/04/17 05:52:56;;;;;;;1.30;1.10;;;9.60;77.70;;;;;;5072021;28;20664;-41
2022/04/17 05:55:24;;;;;;;1.40;1.13;;;9.60;77.50;;;;;;5060524;28;20744;-39
2022/04/17 05:57:51;;;;;;;2.17;1.20;;;9.70;77.60;;;;;;5071488;28;20196;-41
2022/04/17 06:00:18;;;;;;;1.10;1.00;;;9.70;77.70;;;;;;5060047;28;20193;-39
2022/04/17 06:02:46;;;;;;;1.33;1.03;;;9.70;77.80;;;;;;5071012;28;20284;-39
2022/04/17 06:05:17;;;;;;;1.67;1.20;;;9.70;77.90;;;;;;5059060;28;20652;-38
2022/04/17 06:07:44;;;;;;;1.07;0.97;;;9.70;77.90;;;;;;5070041;28;20253;-40
2022/04/17 06:10:12;;;;;;;1.30;1.20;;;9.70;78.00;;;;;;5070450;28;20329;-39
2022/04/17 06:12:40;;;;;;;1.33;1.10;;;9.80;78.20;;;;;;5070037;28;20269;-39
2022/04/17 06:15:09;;;;;;;1.00;1.00;;;9.80;78.20;;;;;;5070234;28;20246;-39
2022/04/17 06:17:38;;;;;;;1.53;0.90;;;9.90;78.40;;;;;;5068805;28;20232;-43
2022/04/17 06:20:06;;;;;;;1.53;1.03;;;9.90;78.30;;;;;;5061758;28;20341;-39
2022/04/17 06:22:36;;;;;;;1.13;1.03;;;10.00;77.30;;;;;;5061696;28;20580;-39
2022/04/17 06:25:03;;;;;;;0.80;0.80;;;10.00;77.00;;;;;;5063739;28;20709;-42
2022/04/17 06:27:37;;;;;;;1.60;1.10;;;10.10;76.90;;;;;;5063003;28;20204;-40
2022/04/17 06:30:09;;;;;;;1.00;0.90;;;10.10;76.70;;;;;;5060045;28;20267;-39
2022/04/17 06:32:36;;;;;;;2.90;1.60;;;10.10;76.60;;;;;;5058617;28;20695;-43
2022/04/17 06:35:04;;;;;;;2.40;1.90;;;10.20;76.50;;;;;;5064677;28;20197;-42
2022/04/17 06:37:31;;;;;;;2.20;1.80;;;10.20;76.40;;;;;;5072266;28;20202;-41
2022/04/17 06:39:59;;;;;;;4.50;2.57;;;10.20;76.30;;;;;;5064053;28;20196;-39
2022/04/17 06:42:27;;;;;;;4.23;2.53;;;10.30;76.30;;;;;;5056768;28;20279;-41
2022/04/17 06:44:54;;;;;;;8.50;3.07;;;10.30;76.20;;;;;;5098822;28;20212;-40
2022/04/17 06:47:21;;;;;;;7.67;2.80;;;10.40;76.00;;;;;;5070035;28;20628;-39
2022/04/17 06:49:48;;;;;;;5.73;2.40;;;10.50;75.70;;;;;;5067445;28;20262;-40
2022/04/17 06:52:15;;;;;;;5.57;3.47;;;10.50;75.60;;;;;;5070331;28;20203;-40
2022/04/17 06:54:42;;;;;;;10.97;3.53;;;10.50;75.60;;;;;;5068576;28;20254;-39
2022/04/17 06:57:10;;;;;;;5.47;2.83;;;10.50;75.60;;;;;;5069705;28;20227;-39
2022/04/17 06:59:39;;;;;;;4.83;2.40;;;10.70;75.60;;;;;;5066968;28;20584;-39
2022/04/17 07:02:07;;;;;;;2.67;2.17;;;10.70;75.50;;;;;;5068371;28;20202;-42
2022/04/17 07:04:34;;;;;;;3.50;2.00;;;10.90;75.40;;;;;;5063503;28;20198;-40
2022/04/17 07:07:01;;;;;;;1.63;1.53;;;11.00;75.30;;;;;;5068264;28;20591;-40
2022/04/17 07:09:28;;;;;;;1.80;1.30;;;11.10;75.10;;;;;;5064144;28;20214;-40
2022/04/17 07:11:55;;;;;;;4.17;1.10;;;11.10;74.70;;;;;;5067851;28;20554;-39
2022/04/17 07:14:24;;;;;;;5.80;1.33;;;11.20;74.20;;;;;;5063905;28;20196;-39
2022/04/17 07:16:51;;;;;;;1.10;0.63;;;11.30;73.90;;;;;;5069750;28;20233;-39
2022/04/17 07:19:18;;;;;;;0.80;0.80;;;11.30;73.10;;;;;;5060983;28;20203;-39
2022/04/17 07:21:45;;;;;;;1.20;0.80;;;11.40;72.50;;;;;;5069183;28;20212;-43
2022/04/17 07:24:13;;;;;;;1.53;0.90;;;11.50;72.10;;;;;;5069577;28;20302;-42
2022/04/17 07:26:40;;;;;;;1.90;1.00;;;11.50;71.50;;;;;;5065824;28;20193;-40
2022/04/17 07:29:07;;;;;;;2.33;1.20;;;11.60;71.10;;;;;;5065579;28;20287;-40
2022/04/17 07:31:35;;;;;;;3.77;1.20;;;11.60;70.40;;;;;;5064167;28;20606;-39
2022/04/17 07:34:02;;;;;;;1.40;1.00;;;11.70;70.20;;;;;;5059665;28;20195;-39
2022/04/17 07:36:29;;;;;;;1.40;1.20;;;11.80;69.70;;;;;;5063785;28;20204;-39
2022/04/17 07:38:56;;;;;;;1.10;1.00;;;11.80;69.40;;;;;;5058087;28;20201;-42
2022/04/17 07:41:24;;;;;;;0.93;0.90;;;11.90;69.30;;;;;;5082992;28;20263;-40
2022/04/17 07:43:51;;;;;;;2.17;1.00;;;12.00;69.00;;;;;;5056547;28;20197;-39
2022/04/17 07:46:18;;;;;;;0.70;0.70;;;12.00;68.50;;;;;;5069463;28;20196;-39
2022/04/17 07:48:46;;;;;;;0.70;0.70;;;12.10;68.30;;;;;;5057086;28;20208;-44
2022/04/17 07:51:13;;;;;;;0.93;0.90;;;12.10;68.10;;;;;;5068682;28;20545;-39
2022/04/17 07:53:40;;;;;;;0.70;0.70;;;12.20;67.80;;;;;;5069353;28;20217;-39
2022/04/17 07:56:07;;;;;;;3.17;0.97;;;12.30;67.30;;;;;;5068649;28;20204;-45
2022/04/17 07:58:35;;;;;;;1.37;0.90;;;12.30;66.80;;;;;;5067811;28;20197;-43
2022/04/17 08:01:10;;;;;;;1.30;0.97;;;12.40;66.30;;;;;;5066576;28;20193;-40
2022/04/17 08:03:47;;;;;;;0.90;0.70;;;12.40;65.90;;;;;;5067467;28;20200;-42
2022/04/17 08:06:20;;;;;;;0.60;0.60;;;12.50;65.30;;;;;;5065677;28;20201;-46
2022/04/17 08:08:50;;;;;;;0.97;0.70;;;12.60;65.00;;;;;;5070460;28;20667;-39
2022/04/17 08:11:18;;;;;;;5.13;2.30;;;12.60;64.40;;;;;;5065360;28;20221;-42
2022/04/17 08:13:47;;;;;;;1.53;1.43;;;12.70;63.80;;;;;;5058233;28;20202;-47
2022/04/17 08:16:14;;;;;;;2.40;1.00;;;12.70;63.90;;;;;;5063208;28;20201;-43
2022/04/17 08:18:42;;;;;;;0.70;0.70;;;12.80;63.10;;;;;;5065235;28;20189;-43
2022/04/17 08:21:09;;;;;;;0.80;0.80;;;12.80;63.00;;;;;;5062455;28;20229;-43
2022/04/17 08:23:38;;;;;;;0.80;0.80;;;12.90;63.00;;;;;;5069066;28;20300;-39
2022/04/17 08:26:06;;;;;;;0.60;0.60;;;12.90;63.00;;;;;;5059798;28;20651;-40
2022/04/17 08:28:33;;;;;;;0.63;0.63;;;13.00;62.90;;;;;;5065902;28;20284;-39
2022/04/17 08:31:00;;;;;;;1.00;0.80;;;13.00;62.90;;;;;;5059580;28;20212;-41
2022/04/17 08:33:27;;;;;;;0.60;0.60;;;13.10;61.50;;;;;;5063636;28;20226;-42
2022/04/17 08:35:55;;;;;;;0.80;0.60;;;13.10;61.90;;;;;;5058468;28;20187;-43
2022/04/17 08:38:22;;;;;;;0.40;0.40;;;13.10;62.00;;;;;;5064244;28;20211;-39
2022/04/17 08:40:51;;;;;;;0.70;0.60;;;13.20;62.20;;;;;;5057236;28;20198;-43
2022/04/17 08:43:22;;;;;;;0.53;0.53;;;13.20;61.90;;;;;;5052212;28;20204;-41
2022/04/17 08:45:51;;;;;;;0.40;0.40;;;13.30;61.80;;;;;;5068449;28;20599;-40
2022/04/17 08:48:18;;;;;;;1.10;1.00;;;13.40;61.80;;;;;;5066240;28;20239;-41
2022/04/17 08:50:47;;;;;;;0.90;0.70;;;13.50;59.60;;;;;;5068292;28;20270;-39
2022/04/17 08:53:17;;;;;;;0.40;0.40;;;13.60;59.80;;;;;;5067313;28;20284;-41
2022/04/17 08:55:45;;;;;;;0.50;0.50;;;13.70;59.90;;;;;;5065369;28;20281;-42
2022/04/17 08:58:13;;;;;;;1.27;0.63;;;13.80;59.90;;;;;;5066894;28;20208;-39
2022/04/17 09:00:40;;;;;;;0.60;0.60;;;13.80;59.40;;;;;;5068090;28;20549;-43
2022/04/17 09:03:09;;;;;;;0.53;0.53;;;13.90;59.60;;;;;;5064501;28;20198;-40
2022/04/17 09:05:37;;;;;;;0.40;0.40;;;13.90;59.40;;;;;;5067644;28;20272;-40
2022/04/17 09:08:14;;;;;;;0.87;0.70;;;14.10;59.40;;;;;;5065501;28;20280;-44
2022/04/17 09:10:41;;;;;;;2.07;1.50;;;14.10;58.60;;;;;;5068781;28;20201;-48
2022/04/17 09:13:08;;;;;;;1.43;1.30;;;14.20;58.00;;;;;;5067513;28;20202;-40
2022/04/17 09:15:38;;;;;;;1.00;1.00;;;14.30;58.10;;;;;;5069916;28;20633;-39
2022/04/17 09:18:08;;;;;;;0.70;0.70;;;14.40;58.20;;;;;;5066987;28;20232;-46
2022/04/17 09:20:35;;;;;;;0.50;0.50;;;14.50;57.60;;;;;;5067635;28;20279;-46
2022/04/17 09:23:04;;;;;;;0.67;0.67;;;14.50;57.40;;;;;;5066464;28;20251;-42
2022/04/17 09:25:31;;;;;;;0.40;0.40;;;14.70;57.00;;;;;;5067302;28;20684;-47
2022/04/17 09:28:01;;;;;;;0.50;0.50;;;14.70;56.60;;;;;;5070404;28;20207;-40
2022/04/17 09:30:30;;;;;;;0.50;0.50;;;14.80;56.20;;;;;;5065642;28;20268;-43
2022/04/17 09:32:59;;;;;;;0.50;0.50;;;14.90;55.30;;;;;;5064140;28;20261;-43
2022/04/17 09:35:27;;;;;;;0.40;0.40;;;14.90;54.20;;;;;;5064688;28;20572;-43
2022/04/17 09:37:59;;;;;;;0.40;0.40;;;15.00;53.80;;;;;;5065312;28;20200;-40
2022/04/17 09:40:27;;;;;;;0.50;0.50;;;15.00;53.30;;;;;;5069004;28;20580;-40
2022/04/17 09:43:10;;;;;;;1.10;1.00;;;15.10;52.90;;;;;;5058923;28;20212;-45
2022/04/17 09:45:57;;;;;;;1.87;1.77;;;15.20;47.60;;;;;;5060495;28;20191;-42
2022/04/17 09:48:25;;;;;;;1.43;1.00;;;15.20;46.20;;;;;;5069991;28;20601;-45
2022/04/17 09:50:53;;;;;;;0.60;0.60;;;15.20;43.80;;;;;;5071068;28;20282;-39
2022/04/17 09:53:34;;;;;;;0.50;0.50;;;15.10;42.40;;;;;;5069684;28;20735;-45
2022/04/17 09:56:11;;;;;;;0.50;0.50;;;15.20;43.90;;;;;;5070788;28;20225;-41
2022/04/17 09:58:45;;;;;;;0.67;0.67;;;15.20;44.50;;;;;;5061512;28;20340;-43
2022/04/17 10:01:16;;;;;;;0.70;0.70;;;15.40;44.00;;;;;;5066234;28;20216;-46
2022/04/17 10:03:44;;;;;;;0.60;0.50;;;15.40;42.00;;;;;;5060010;28;20207;-45
2022/04/17 10:06:12;;;;;;;0.60;0.60;;;15.30;41.50;;;;;;5064447;28;20187;-45
2022/04/17 10:08:44;;;;;;;0.60;0.60;;;15.40;42.60;;;;;;5068141;28;20219;-43
2022/04/17 10:11:13;;;;;;;1.50;0.50;;;15.50;42.50;;;;;;5063070;28;20208;-46
2022/04/17 10:13:41;;;;;;;0.67;0.50;;;15.60;42.80;;;;;;5067538;28;20284;-45
2022/04/17 10:16:09;;;;;;;0.30;0.30;;;15.60;42.70;;;;;;5065078;28;20211;-43
2022/04/17 10:18:40;;;;;;;0.50;0.40;;;15.70;42.70;;;;;;5065384;28;20219;-41
2022/04/17 10:21:09;;;;;;;0.47;0.47;;;15.80;42.50;;;;;;5060323;28;20323;-41
2022/04/17 10:23:42;;;;;;;0.40;0.40;;;15.90;42.60;;;;;;5063376;28;20418;-43
2022/04/17 10:26:11;;;;;;;0.33;0.33;;;16.10;42.70;;;;;;5061073;28;20239;-42
2022/04/17 10:28:45;;;;;;;0.77;0.40;;;16.10;42.40;;;;;;5069811;28;20736;-46
2022/04/17 10:31:17;;;;;;;0.43;0.43;;;16.20;42.20;;;;;;5060502;28;20209;-48
2022/04/17 10:34:33;;;;;;;0.50;0.50;;;16.20;42.00;;;;;;5057399;28;20558;-47
2022/04/17 10:37:24;;;;;;;1.70;0.50;;;16.30;41.80;;;;;;5065592;28;20201;-44
2022/04/17 10:39:54;;;;;;;0.50;0.50;;;16.30;41.70;;;;;;5062153;28;20741;-45
2022/04/17 10:42:24;;;;;;;0.60;0.60;;;16.30;40.80;;;;;;5056094;28;20190;-43
2022/04/17 10:45:02;;;;;;;0.40;0.40;;;16.30;40.70;;;;;;5066523;28;20197;-40
2022/04/17 10:47:30;;;;;;;1.40;0.50;;;16.40;40.80;;;;;;5070976;28;20197;-46
2022/04/17 10:50:00;;;;;;;0.50;0.50;;;16.50;40.80;;;;;;5067317;28;20262;-48
2022/04/17 10:52:33;;;;;;;1.03;0.70;;;16.50;40.00;;;;;;5070556;28;20201;-44
2022/04/17 10:55:11;;;;;;;0.60;0.60;;;16.50;38.50;;;;;;5069993;28;20205;-40
2022/04/17 10:57:45;;;;;;;0.50;0.50;;;16.50;38.80;;;;;;5070580;28;20674;-40
2022/04/17 11:00:27;;;;;;;0.60;0.60;;;16.50;39.40;;;;;;5069193;28;20196;-40
2022/04/17 11:02:55;;;;;;;0.50;0.50;;;16.60;39.40;;;;;;5064597;28;20814;-43
2022/04/17 11:06:08;;;;;;;0.90;0.80;;;16.60;39.40;;;;;;5068318;28;20282;-43
2022/04/17 11:08:28;;;;;;;0.90;0.90;;;16.70;39.50;;;;;;5067644;28;20200;-41
2022/04/17 11:11:01;;;;;;;0.80;0.80;;;16.80;39.50;;;;;;5065322;28;20661;-42
2022/04/17 11:13:28;;;;;;;0.87;0.87;;;16.90;39.70;;;;;;5056772;28;20212;-40
2022/04/17 11:15:56;;;;;;;1.03;0.67;;;16.90;39.20;;;;;;5064841;28;20553;-43
2022/04/17 11:18:25;;;;;;;0.70;0.70;;;16.90;39.10;;;;;;5065420;28;20193;-39
2022/04/17 11:20:54;;;;;;;0.50;0.50;;;16.90;39.30;;;;;;5057462;28;20739;-46
2022/04/17 11:24:00;;;;;;;0.70;0.70;;;16.90;39.50;;;;;;5063220;28;20196;-46
2022/04/17 11:27:05;;;;;;;1.53;1.30;;;17.00;39.70;;;;;;5059241;28;20208;-46
2022/04/17 11:29:37;;;;;;;1.20;1.10;;;17.10;39.50;;;;;;5056335;28;20204;-42
2022/04/17 11:32:19;;;;;;;1.30;1.10;;;17.10;39.50;;;;;;5069079;28;20407;-44
2022/04/17 11:34:52;;;;;;;0.60;0.60;;;17.20;39.60;;;;;;5064451;28;20291;-48
2022/04/17 11:37:20;;;;;;;0.67;0.67;;;17.80;39.90;;;;;;5054574;28;20209;-43
2022/04/17 11:39:49;;;;;;;0.77;0.77;;;17.20;39.30;;;;;;5059705;28;20193;-47
2022/04/17 11:42:17;;;;;;;0.80;0.80;;;17.20;38.40;;;;;;5053790;28;20289;-42
2022/04/17 11:44:45;;;;;;;0.60;0.60;;;17.10;38.30;;;;;;5064379;28;20565;-47
2022/04/17 11:47:15;;;;;;;2.10;0.70;;;17.00;38.60;;;;;;5069625;28;20201;-45
2022/04/17 11:49:42;;;;;;;0.73;0.73;;;17.00;38.40;;;;;;5066729;28;20197;-40
2022/04/17 11:52:14;;;;;;;0.77;0.67;;;16.90;38.70;;;;;;5069575;28;20216;-44
2022/04/17 11:54:42;;;;;;;0.80;0.80;;;16.90;39.00;;;;;;5067811;28;20689;-39
2022/04/17 11:57:12;;;;;;;1.60;1.07;;;17.00;38.90;;;;;;5069012;28;20246;-42
2022/04/17 11:59:46;;;;;;;0.63;0.63;;;17.00;38.60;;;;;;5066219;28;20198;-39
2022/04/17 12:02:16;;;;;;;1.37;0.70;;;17.00;39.00;;;;;;5068077;28;20247;-43
2022/04/17 12:04:43;;;;;;;0.57;0.57;;;17.00;38.90;;;;;;5063895;28;20203;-42
2022/04/17 12:07:11;;;;;;;1.73;0.60;;;17.00;39.20;;;;;;5058804;28;20194;-44
2022/04/17 12:09:39;;;;;;;0.50;0.50;;;17.00;38.90;;;;;;5066649;28;20201;-46
2022/04/17 12:12:12;;;;;;;0.53;0.53;;;17.00;39.20;;;;;;5067553;28;20212;-41
2022/04/17 12:14:39;;;;;;;0.83;0.80;;;17.00;39.00;;;;;;5064058;28;20246;-44
2022/04/17 12:17:07;;;;;;;0.40;0.40;;;17.00;39.00;;;;;;5067697;28;20311;-47
2022/04/17 12:19:34;;;;;;;0.93;0.80;;;17.00;39.30;;;;;;5060290;28;20250;-46
2022/04/17 12:22:06;;;;;;;0.40;0.40;;;17.00;39.20;;;;;;5062892;28;20204;-43
2022/04/17 12:24:33;;;;;;;0.50;0.40;;;17.00;39.10;;;;;;5062106;28;20200;-47
2022/04/17 12:27:00;;;;;;;0.60;0.60;;;17.00;39.20;;;;;;5064942;28;20212;-43
2022/04/17 12:29:29;;;;;;;0.50;0.50;;;17.00;38.90;;;;;;5064344;28;20649;-46
2022/04/17 12:31:56;;;;;;;0.70;0.70;;;17.00;39.20;;;;;;5061475;28;20240;-48
2022/04/17 12:34:26;;;;;;;0.70;0.70;;;17.00;39.30;;;;;;5059356;28;20603;-42
2022/04/17 12:36:54;;;;;;;0.90;0.90;;;17.10;39.60;;;;;;5059219;28;20205;-42
2022/04/17 12:39:32;;;;;;;0.60;0.60;;;17.10;39.30;;;;;;5067182;28;20246;-46
2022/04/17 12:41:59;;;;;;;1.33;0.70;;;17.10;39.50;;;;;;5062369;28;20599;-42
2022/04/17 12:44:35;;;;;;;0.83;0.83;;;17.10;39.10;;;;;;5070114;28;20280;-45
2022/04/17 12:47:11;;;;;;;0.80;0.80;;;17.10;39.30;;;;;;5072738;28;20205;-48
2022/04/17 12:49:38;;;;;;;0.70;0.70;;;17.10;40.00;;;;;;5069917;28;20625;-45
2022/04/17 12:52:06;;;;;;;0.67;0.67;;;17.10;39.70;;;;;;5061297;28;20624;-43
2022/04/17 12:54:35;;;;;;;0.70;0.70;;;17.00;40.20;;;;;;5071135;28;20216;-40
2022/04/17 12:57:03;;;;;;;0.63;0.63;;;17.00;41.50;;;;;;5068247;28;20232;-39
2022/04/17 12:59:41;;;;;;;0.60;0.60;;;17.00;41.20;;;;;;5070703;28;20305;-43
2022/04/17 13:02:13;;;;;;;0.80;0.80;;;17.00;41.50;;;;;;5072095;28;20239;-41
2022/04/17 13:04:44;;;;;;;0.90;0.87;;;17.10;42.20;;;;;;5067552;28;20193;-41
2022/04/17 13:07:14;;;;;;;0.60;0.60;;;17.10;42.60;;;;;;5070989;28;20710;-43
2022/04/17 13:09:51;;;;;;;0.90;0.90;;;17.00;43.10;;;;;;5067135;28;20197;-42
2022/04/17 13:12:32;;;;;;;1.23;0.70;;;17.00;43.80;;;;;;5069507;28;20693;-40
2022/04/17 13:15:02;;;;;;;1.40;1.00;;;16.90;43.80;;;;;;5071893;28;20577;-41